Sikinos — 9HA2865 — position and weather

sailwx.info

Track history (hours):
 
Tides and Currents Weather Stations Pressure Air Temp Water Temp Dewpoint Dewpoint Depression Visibility Wind Speed Wind Dir Waves Ship Positions

Sikinos

Last reported at 2014-Oct-21 09:17 UTC. Time now 2014-Oct-22 12:25 UTC.
Position N 34°56' W 007°10'.

Length 90 m; draft 6.4 m.

Type: Ship (hazmat cat A). MMSI: 256462000.

Date/timePositionNaut miles runAvg speedWind from/ knotsBaromVisibWave heightAir tempDewpointWater temp
2014-Oct-21 09:17N 34°56' W 007°10'811.2
2014-Oct-21 08:32N 35°02' W 007°03'5 0.1
2014-Oct-19 08:04N 35°04' W 006°57'711.6
2014-Oct-19 07:28N 34°59' W 007°03'1111.6
2014-Oct-19 06:33N 34°52' W 007°13'2711.8
2014-Oct-19 04:15N 34°34' W 007°37'1212.0
2014-Oct-19 03:16N 34°27' W 007°49'1011.9
2014-Oct-19 02:24N 34°20' W 007°58'1011.8
2014-Oct-19 01:33N 34°13' W 008°07'  
Track history (hours):
 
Tides and Currents Weather Stations Pressure Air Temp Water Temp Dewpoint Dewpoint Depression Visibility Wind Speed Wind Dir Waves Ship Positions

Sikinos

Last reported at 2014-Oct-21 09:17 UTC. Time now 2014-Oct-22 12:25 UTC.
Position N 34°56' W 007°10'.

Length 90 m; draft 6.4 m.

Type: Ship (hazmat cat A). MMSI: 256462000.

Date/timePositionNaut miles runAvg speedWind from/ knotsBaromVisibWave heightAir tempDewpointWater temp
2014-Oct-21 09:17N 34°56' W 007°10'811.2
2014-Oct-21 08:32N 35°02' W 007°03'5 0.1
2014-Oct-19 08:04N 35°04' W 006°57'711.6
2014-Oct-19 07:28N 34°59' W 007°03'1111.6
2014-Oct-19 06:33N 34°52' W 007°13'2711.8
2014-Oct-19 04:15N 34°34' W 007°37'1212.0
2014-Oct-19 03:16N 34°27' W 007°49'1011.9
2014-Oct-19 02:24N 34°20' W 007°58'1011.8
2014-Oct-19 01:33N 34°13' W 008°07'  

Dump ship's entire track history